sensor_id;sensor_type;location;lat;lon;timestamp;P1;durP1;ratioP1;P2;durP2;ratioP2
46084;SDS011;31823;47.032;8.310;2023-04-01T00:02:18;1.27;;;0.80;;
46084;SDS011;31823;47.032;8.310;2023-04-01T00:04:44;0.70;;;0.70;;
46084;SDS011;31823;47.032;8.310;2023-04-01T00:07:10;1.13;;;0.80;;
46084;SDS011;31823;47.032;8.310;2023-04-01T00:09:36;1.42;;;0.90;;
46084;SDS011;31823;47.032;8.310;2023-04-01T00:12:02;1.25;;;1.15;;
46084;SDS011;31823;47.032;8.310;2023-04-01T00:14:28;0.80;;;0.80;;
46084;SDS011;31823;47.032;8.310;2023-04-01T00:16:54;1.60;;;0.90;;
46084;SDS011;31823;47.032;8.310;2023-04-01T00:19:20;1.45;;;0.68;;
46084;SDS011;31823;47.032;8.310;2023-04-01T00:21:46;1.67;;;0.95;;
46084;SDS011;31823;47.032;8.310;2023-04-01T00:24:12;4.88;;;1.00;;
46084;SDS011;31823;47.032;8.310;2023-04-01T00:26:38;2.38;;;0.90;;
46084;SDS011;31823;47.032;8.310;2023-04-01T00:29:05;0.70;;;0.70;;
46084;SDS011;31823;47.032;8.310;2023-04-01T00:31:31;0.88;;;0.80;;
46084;SDS011;31823;47.032;8.310;2023-04-01T00:33:57;2.50;;;0.75;;
46084;SDS011;31823;47.032;8.310;2023-04-01T00:36:22;0.93;;;0.80;;
46084;SDS011;31823;47.032;8.310;2023-04-01T00:38:48;2.38;;;0.80;;
46084;SDS011;31823;47.032;8.310;2023-04-01T00:41:15;0.60;;;0.60;;
46084;SDS011;31823;47.032;8.310;2023-04-01T00:43:48;2.53;;;0.82;;
46084;SDS011;31823;47.032;8.310;2023-04-01T00:46:15;2.78;;;0.90;;
46084;SDS011;31823;47.032;8.310;2023-04-01T00:48:42;0.70;;;0.70;;
46084;SDS011;31823;47.032;8.310;2023-04-01T00:51:26;1.63;;;0.93;;
46084;SDS011;31823;47.032;8.310;2023-04-01T00:53:55;1.83;;;0.80;;
46084;SDS011;31823;47.032;8.310;2023-04-01T00:56:27;1.08;;;1.05;;
46084;SDS011;31823;47.032;8.310;2023-04-01T00:58:58;2.60;;;0.95;;
46084;SDS011;31823;47.032;8.310;2023-04-01T01:01:27;4.32;;;0.90;;
46084;SDS011;31823;47.032;8.310;2023-04-01T01:03:54;1.48;;;0.80;;
46084;SDS011;31823;47.032;8.310;2023-04-01T01:11:50;3.08;;;0.88;;
46084;SDS011;31823;47.032;8.310;2023-04-01T01:33:36;1.05;;;0.98;;
46084;SDS011;31823;47.032;8.310;2023-04-01T01:36:14;1.37;;;0.80;;
46084;SDS011;31823;47.032;8.310;2023-04-01T01:38:42;0.82;;;0.80;;
46084;SDS011;31823;47.032;8.310;2023-04-01T01:41:10;0.90;;;0.90;;
46084;SDS011;31823;47.032;8.310;2023-04-01T01:43:40;1.20;;;0.85;;
46084;SDS011;31823;47.032;8.310;2023-04-01T01:46:09;2.25;;;0.90;;
46084;SDS011;31823;47.032;8.310;2023-04-01T01:48:38;1.00;;;0.77;;
46084;SDS011;31823;47.032;8.310;2023-04-01T01:51:06;0.77;;;0.77;;
46084;SDS011;31823;47.032;8.310;2023-04-01T01:53:32;0.70;;;0.70;;
46084;SDS011;31823;47.032;8.310;2023-04-01T01:55:58;0.70;;;0.70;;
46084;SDS011;31823;47.032;8.310;2023-04-01T02:01:08;0.75;;;0.75;;
46084;SDS011;31823;47.032;8.310;2023-04-01T02:03:39;2.97;;;0.77;;
46084;SDS011;31823;47.032;8.310;2023-04-01T02:06:07;1.42;;;0.80;;
46084;SDS011;31823;47.032;8.310;2023-04-01T02:11:06;0.85;;;0.82;;
46084;SDS011;31823;47.032;8.310;2023-04-01T02:13:39;0.77;;;0.77;;
46084;SDS011;31823;47.032;8.310;2023-04-01T02:16:27;0.70;;;0.70;;
46084;SDS011;31823;47.032;8.310;2023-04-01T02:18:59;0.50;;;0.50;;
46084;SDS011;31823;47.032;8.310;2023-04-01T02:21:29;0.88;;;0.70;;
46084;SDS011;31823;47.032;8.310;2023-04-01T02:23:57;2.08;;;0.82;;
46084;SDS011;31823;47.032;8.310;2023-04-01T02:26:25;0.65;;;0.65;;
46084;SDS011;31823;47.032;8.310;2023-04-01T02:28:52;1.15;;;0.70;;
46084;SDS011;31823;47.032;8.310;2023-04-01T02:31:19;0.70;;;0.70;;
46084;SDS011;31823;47.032;8.310;2023-04-01T02:33:45;1.45;;;1.30;;
46084;SDS011;31823;47.032;8.310;2023-04-01T02:36:12;0.73;;;0.73;;
46084;SDS011;31823;47.032;8.310;2023-04-01T02:38:39;1.52;;;1.13;;
46084;SDS011;31823;47.032;8.310;2023-04-01T02:41:06;1.77;;;0.90;;
46084;SDS011;31823;47.032;8.310;2023-04-01T02:43:32;2.08;;;0.90;;
46084;SDS011;31823;47.032;8.310;2023-04-01T02:45:57;3.50;;;1.10;;
46084;SDS011;31823;47.032;8.310;2023-04-01T02:48:23;1.55;;;0.88;;
46084;SDS011;31823;47.032;8.310;2023-04-01T02:50:49;1.67;;;1.10;;
46084;SDS011;31823;47.032;8.310;2023-04-01T02:53:15;1.52;;;1.00;;
46084;SDS011;31823;47.032;8.310;2023-04-01T02:55:41;0.73;;;0.73;;
46084;SDS011;31823;47.032;8.310;2023-04-01T02:58:07;0.80;;;0.70;;
46084;SDS011;31823;47.032;8.310;2023-04-01T03:00:32;1.42;;;0.80;;
46084;SDS011;31823;47.032;8.310;2023-04-01T03:02:58;1.70;;;1.23;;
46084;SDS011;31823;47.032;8.310;2023-04-01T03:05:24;2.50;;;1.00;;
46084;SDS011;31823;47.032;8.310;2023-04-01T03:07:50;0.70;;;0.70;;
46084;SDS011;31823;47.032;8.310;2023-04-01T03:10:16;1.58;;;0.95;;
46084;SDS011;31823;47.032;8.310;2023-04-01T03:12:42;1.00;;;0.77;;
46084;SDS011;31823;47.032;8.310;2023-04-01T03:15:09;1.58;;;0.98;;
46084;SDS011;31823;47.032;8.310;2023-04-01T03:17:36;2.15;;;0.90;;
46084;SDS011;31823;47.032;8.310;2023-04-01T03:20:02;0.77;;;0.77;;
46084;SDS011;31823;47.032;8.310;2023-04-01T03:22:29;1.52;;;0.93;;
46084;SDS011;31823;47.032;8.310;2023-04-01T03:24:55;3.00;;;0.90;;
46084;SDS011;31823;47.032;8.310;2023-04-01T03:27:21;1.17;;;0.75;;
46084;SDS011;31823;47.032;8.310;2023-04-01T03:29:48;1.42;;;0.90;;
46084;SDS011;31823;47.032;8.310;2023-04-01T03:32:13;1.27;;;0.90;;
46084;SDS011;31823;47.032;8.310;2023-04-01T03:34:39;1.30;;;0.90;;
46084;SDS011;31823;47.032;8.310;2023-04-01T03:37:04;1.73;;;0.90;;
46084;SDS011;31823;47.032;8.310;2023-04-01T03:39:31;1.27;;;1.00;;
46084;SDS011;31823;47.032;8.310;2023-04-01T03:41:56;3.28;;;1.17;;
46084;SDS011;31823;47.032;8.310;2023-04-01T03:44:22;0.90;;;0.90;;
46084;SDS011;31823;47.032;8.310;2023-04-01T03:46:47;1.15;;;0.90;;
46084;SDS011;31823;47.032;8.310;2023-04-01T03:49:13;1.58;;;0.85;;
46084;SDS011;31823;47.032;8.310;2023-04-01T03:51:39;2.47;;;1.00;;
46084;SDS011;31823;47.032;8.310;2023-04-01T03:54:06;1.08;;;0.82;;
46084;SDS011;31823;47.032;8.310;2023-04-01T03:56:32;1.67;;;1.13;;
46084;SDS011;31823;47.032;8.310;2023-04-01T03:58:58;1.15;;;0.80;;
46084;SDS011;31823;47.032;8.310;2023-04-01T04:01:26;4.18;;;0.90;;
46084;SDS011;31823;47.032;8.310;2023-04-01T04:03:52;0.80;;;0.80;;
46084;SDS011;31823;47.032;8.310;2023-04-01T04:06:18;0.75;;;0.75;;
46084;SDS011;31823;47.032;8.310;2023-04-01T04:08:44;2.63;;;0.90;;
46084;SDS011;31823;47.032;8.310;2023-04-01T04:11:10;1.33;;;1.00;;
46084;SDS011;31823;47.032;8.310;2023-04-01T04:13:37;1.67;;;1.15;;
46084;SDS011;31823;47.032;8.310;2023-04-01T04:16:03;1.15;;;0.90;;
46084;SDS011;31823;47.032;8.310;2023-04-01T04:18:29;1.15;;;0.95;;
46084;SDS011;31823;47.032;8.310;2023-04-01T04:20:54;1.20;;;0.80;;
46084;SDS011;31823;47.032;8.310;2023-04-01T04:23:21;2.30;;;1.00;;
46084;SDS011;31823;47.032;8.310;2023-04-01T04:26:00;2.30;;;0.85;;
46084;SDS011;31823;47.032;8.310;2023-04-01T04:28:27;1.00;;;0.95;;
46084;SDS011;31823;47.032;8.310;2023-04-01T04:30:54;2.05;;;0.85;;
46084;SDS011;31823;47.032;8.310;2023-04-01T04:33:20;1.17;;;0.77;;
46084;SDS011;31823;47.032;8.310;2023-04-01T04:35:47;0.90;;;0.90;;
46084;SDS011;31823;47.032;8.310;2023-04-01T04:38:12;2.53;;;1.00;;
46084;SDS011;31823;47.032;8.310;2023-04-01T04:40:40;1.08;;;0.88;;
46084;SDS011;31823;47.032;8.310;2023-04-01T04:43:06;1.38;;;0.80;;
46084;SDS011;31823;47.032;8.310;2023-04-01T04:45:34;0.80;;;0.80;;
46084;SDS011;31823;47.032;8.310;2023-04-01T04:48:00;1.00;;;0.70;;
46084;SDS011;31823;47.032;8.310;2023-04-01T04:50:26;0.90;;;0.90;;
46084;SDS011;31823;47.032;8.310;2023-04-01T04:52:51;0.90;;;0.90;;
46084;SDS011;31823;47.032;8.310;2023-04-01T04:55:17;1.30;;;1.05;;
46084;SDS011;31823;47.032;8.310;2023-04-01T04:57:43;0.60;;;0.60;;
46084;SDS011;31823;47.032;8.310;2023-04-01T05:00:09;1.33;;;1.20;;
46084;SDS011;31823;47.032;8.310;2023-04-01T05:02:37;0.80;;;0.80;;
46084;SDS011;31823;47.032;8.310;2023-04-01T05:05:03;0.82;;;0.82;;
46084;SDS011;31823;47.032;8.310;2023-04-01T05:07:29;1.02;;;0.95;;
46084;SDS011;31823;47.032;8.310;2023-04-01T05:09:55;1.38;;;0.90;;
46084;SDS011;31823;47.032;8.310;2023-04-01T05:12:21;0.95;;;0.80;;
46084;SDS011;31823;47.032;8.310;2023-04-01T05:14:46;1.40;;;0.80;;
46084;SDS011;31823;47.032;8.310;2023-04-01T05:17:12;0.85;;;0.80;;
46084;SDS011;31823;47.032;8.310;2023-04-01T05:19:38;0.60;;;0.60;;
46084;SDS011;31823;47.032;8.310;2023-04-01T05:22:04;0.77;;;0.77;;
46084;SDS011;31823;47.032;8.310;2023-04-01T05:24:31;0.77;;;0.77;;
46084;SDS011;31823;47.032;8.310;2023-04-01T05:26:57;1.30;;;0.63;;
46084;SDS011;31823;47.032;8.310;2023-04-01T05:29:24;0.70;;;0.70;;
46084;SDS011;31823;47.032;8.310;2023-04-01T05:31:51;0.88;;;0.85;;
46084;SDS011;31823;47.032;8.310;2023-04-01T05:34:16;1.13;;;0.80;;
46084;SDS011;31823;47.032;8.310;2023-04-01T05:36:42;0.68;;;0.68;;
46084;SDS011;31823;47.032;8.310;2023-04-01T05:39:09;1.80;;;0.80;;
46084;SDS011;31823;47.032;8.310;2023-04-01T05:41:35;0.73;;;0.73;;
46084;SDS011;31823;47.032;8.310;2023-04-01T05:44:02;0.88;;;0.88;;
46084;SDS011;31823;47.032;8.310;2023-04-01T05:46:28;0.80;;;0.80;;
46084;SDS011;31823;47.032;8.310;2023-04-01T05:48:54;2.55;;;0.80;;
46084;SDS011;31823;47.032;8.310;2023-04-01T05:51:20;0.70;;;0.70;;
46084;SDS011;31823;47.032;8.310;2023-04-01T05:53:45;0.70;;;0.70;;
46084;SDS011;31823;47.032;8.310;2023-04-01T05:56:11;0.70;;;0.70;;
46084;SDS011;31823;47.032;8.310;2023-04-01T05:58:37;0.63;;;0.63;;
46084;SDS011;31823;47.032;8.310;2023-04-01T06:01:04;0.70;;;0.70;;
46084;SDS011;31823;47.032;8.310;2023-04-01T06:03:35;0.95;;;0.70;;
46084;SDS011;31823;47.032;8.310;2023-04-01T06:06:01;0.70;;;0.70;;
46084;SDS011;31823;47.032;8.310;2023-04-01T06:08:27;0.82;;;0.63;;
46084;SDS011;31823;47.032;8.310;2023-04-01T06:24:17;0.68;;;0.68;;
46084;SDS011;31823;47.032;8.310;2023-04-01T06:30:37;0.60;;;0.60;;
46084;SDS011;31823;47.032;8.310;2023-04-01T06:38:47;0.73;;;0.73;;
46084;SDS011;31823;47.032;8.310;2023-04-01T06:49:04;0.70;;;0.70;;
46084;SDS011;31823;47.032;8.310;2023-04-01T06:52:35;0.65;;;0.65;;
46084;SDS011;31823;47.032;8.310;2023-04-01T06:54:58;0.73;;;0.73;;
46084;SDS011;31823;47.032;8.310;2023-04-01T06:57:35;0.63;;;0.63;;
46084;SDS011;31823;47.032;8.310;2023-04-01T07:00:13;0.70;;;0.70;;
46084;SDS011;31823;47.032;8.310;2023-04-01T07:06:06;0.50;;;0.50;;
46084;SDS011;31823;47.032;8.310;2023-04-01T07:08:40;0.60;;;0.60;;
46084;SDS011;31823;47.032;8.310;2023-04-01T07:11:22;0.70;;;0.70;;
46084;SDS011;31823;47.032;8.310;2023-04-01T07:14:01;0.75;;;0.70;;
46084;SDS011;31823;47.032;8.310;2023-04-01T07:16:42;0.70;;;0.70;;
46084;SDS011;31823;47.032;8.310;2023-04-01T07:21:44;0.80;;;0.80;;
46084;SDS011;31823;47.032;8.310;2023-04-01T07:24:33;0.70;;;0.70;;
46084;SDS011;31823;47.032;8.310;2023-04-01T07:27:01;0.70;;;0.60;;
46084;SDS011;31823;47.032;8.310;2023-04-01T07:29:27;0.60;;;0.60;;
46084;SDS011;31823;47.032;8.310;2023-04-01T07:40:08;0.65;;;0.65;;
46084;SDS011;31823;47.032;8.310;2023-04-01T07:48:39;0.60;;;0.60;;
46084;SDS011;31823;47.032;8.310;2023-04-01T07:56:49;0.60;;;0.60;;
46084;SDS011;31823;47.032;8.310;2023-04-01T08:05:28;0.70;;;0.70;;
46084;SDS011;31823;47.032;8.310;2023-04-01T08:13:39;0.60;;;0.60;;
46084;SDS011;31823;47.032;8.310;2023-04-01T08:21:28;0.70;;;0.70;;
46084;SDS011;31823;47.032;8.310;2023-04-01T08:26:53;0.60;;;0.60;;
46084;SDS011;31823;47.032;8.310;2023-04-01T08:29:25;0.70;;;0.70;;
46084;SDS011;31823;47.032;8.310;2023-04-01T08:35:36;1.15;;;0.60;;
46084;SDS011;31823;47.032;8.310;2023-04-01T08:37:45;1.23;;;0.70;;
46084;SDS011;31823;47.032;8.310;2023-04-01T08:40:17;0.60;;;0.60;;
46084;SDS011;31823;47.032;8.310;2023-04-01T08:54:18;1.38;;;0.70;;
46084;SDS011;31823;47.032;8.310;2023-04-01T09:02:41;0.95;;;0.95;;
46084;SDS011;31823;47.032;8.310;2023-04-01T09:11:25;0.70;;;0.70;;
46084;SDS011;31823;47.032;8.310;2023-04-01T09:16:35;0.95;;;0.80;;
46084;SDS011;31823;47.032;8.310;2023-04-01T09:32:39;0.60;;;0.60;;
46084;SDS011;31823;47.032;8.310;2023-04-01T09:35:15;0.70;;;0.70;;
46084;SDS011;31823;47.032;8.310;2023-04-01T09:40:26;0.60;;;0.60;;
46084;SDS011;31823;47.032;8.310;2023-04-01T10:30:59;0.80;;;0.80;;
46084;SDS011;31823;47.032;8.310;2023-04-01T10:39:34;0.60;;;0.60;;
46084;SDS011;31823;47.032;8.310;2023-04-01T10:48:09;0.63;;;0.63;;
46084;SDS011;31823;47.032;8.310;2023-04-01T10:59:15;0.60;;;0.60;;
46084;SDS011;31823;47.032;8.310;2023-04-01T11:16:03;0.60;;;0.60;;
46084;SDS011;31823;47.032;8.310;2023-04-01T11:21:28;0.70;;;0.70;;
46084;SDS011;31823;47.032;8.310;2023-04-01T11:49:48;0.70;;;0.70;;
46084;SDS011;31823;47.032;8.310;2023-04-01T11:58:11;0.55;;;0.55;;
46084;SDS011;31823;47.032;8.310;2023-04-01T12:03:37;0.73;;;0.73;;
46084;SDS011;31823;47.032;8.310;2023-04-01T12:14:36;0.50;;;0.50;;
46084;SDS011;31823;47.032;8.310;2023-04-01T12:20:10;0.60;;;0.60;;
46084;SDS011;31823;47.032;8.310;2023-04-01T12:30:50;0.57;;;0.57;;
46084;SDS011;31823;47.032;8.310;2023-04-01T12:39:44;0.57;;;0.57;;
46084;SDS011;31823;47.032;8.310;2023-04-01T12:45:27;0.50;;;0.50;;
46084;SDS011;31823;47.032;8.310;2023-04-01T12:53:14;0.52;;;0.52;;
46084;SDS011;31823;47.032;8.310;2023-04-01T12:56:05;0.70;;;0.70;;
46084;SDS011;31823;47.032;8.310;2023-04-01T12:59:00;0.55;;;0.55;;
46084;SDS011;31823;47.032;8.310;2023-04-01T13:07:26;0.60;;;0.60;;
46084;SDS011;31823;47.032;8.310;2023-04-01T13:10:15;0.47;;;0.47;;
46084;SDS011;31823;47.032;8.310;2023-04-01T13:13:03;0.50;;;0.50;;
46084;SDS011;31823;47.032;8.310;2023-04-01T13:32:01;0.50;;;0.50;;
46084;SDS011;31823;47.032;8.310;2023-04-01T13:37:52;0.80;;;0.80;;
46084;SDS011;31823;47.032;8.310;2023-04-01T14:26:50;3.90;;;0.68;;
46084;SDS011;31823;47.032;8.310;2023-04-01T14:29:38;0.60;;;0.60;;
46084;SDS011;31823;47.032;8.310;2023-04-01T14:32:11;0.60;;;0.60;;
46084;SDS011;31823;47.032;8.310;2023-04-01T14:37:43;0.80;;;0.70;;
46084;SDS011;31823;47.032;8.310;2023-04-01T14:40:26;0.60;;;0.60;;
46084;SDS011;31823;47.032;8.310;2023-04-01T14:43:08;0.50;;;0.50;;
46084;SDS011;31823;47.032;8.310;2023-04-01T14:51:16;0.50;;;0.50;;
46084;SDS011;31823;47.032;8.310;2023-04-01T14:54:32;0.63;;;0.63;;
46084;SDS011;31823;47.032;8.310;2023-04-01T14:57:14;0.68;;;0.68;;
46084;SDS011;31823;47.032;8.310;2023-04-01T14:59:53;0.60;;;0.60;;
46084;SDS011;31823;47.032;8.310;2023-04-01T15:10:53;1.75;;;0.60;;
46084;SDS011;31823;47.032;8.310;2023-04-01T15:16:19;0.70;;;0.70;;
46084;SDS011;31823;47.032;8.310;2023-04-01T15:18:59;1.15;;;0.95;;
46084;SDS011;31823;47.032;8.310;2023-04-01T15:24:41;0.75;;;0.70;;
46084;SDS011;31823;47.032;8.310;2023-04-01T15:30:06;0.63;;;0.63;;
46084;SDS011;31823;47.032;8.310;2023-04-01T15:41:20;0.60;;;0.60;;
46084;SDS011;31823;47.032;8.310;2023-04-01T15:44:24;0.73;;;0.70;;
46084;SDS011;31823;47.032;8.310;2023-04-01T15:47:06;1.15;;;0.70;;
46084;SDS011;31823;47.032;8.310;2023-04-01T15:50:11;0.70;;;0.65;;
46084;SDS011;31823;47.032;8.310;2023-04-01T15:58:33;1.13;;;1.02;;
46084;SDS011;31823;47.032;8.310;2023-04-01T16:07:10;0.63;;;0.63;;
46084;SDS011;31823;47.032;8.310;2023-04-01T16:15:25;3.05;;;0.70;;
46084;SDS011;31823;47.032;8.310;2023-04-01T16:20:54;2.05;;;0.90;;
46084;SDS011;31823;47.032;8.310;2023-04-01T16:23:39;2.15;;;0.85;;
46084;SDS011;31823;47.032;8.310;2023-04-01T16:26:22;1.52;;;0.80;;
46084;SDS011;31823;47.032;8.310;2023-04-01T16:29:17;0.70;;;0.70;;
46084;SDS011;31823;47.032;8.310;2023-04-01T16:37:38;1.83;;;0.85;;
46084;SDS011;31823;47.032;8.310;2023-04-01T16:43:05;1.25;;;0.93;;
46084;SDS011;31823;47.032;8.310;2023-04-01T16:48:34;1.40;;;0.85;;
46084;SDS011;31823;47.032;8.310;2023-04-01T16:51:15;1.33;;;0.90;;
46084;SDS011;31823;47.032;8.310;2023-04-01T16:53:43;2.78;;;1.02;;
46084;SDS011;31823;47.032;8.310;2023-04-01T16:59:03;2.80;;;1.20;;
46084;SDS011;31823;47.032;8.310;2023-04-01T17:32:23;0.90;;;0.90;;
46084;SDS011;31823;47.032;8.310;2023-04-01T17:35:09;1.50;;;0.98;;
46084;SDS011;31823;47.032;8.310;2023-04-01T17:38:34;1.35;;;1.10;;
46084;SDS011;31823;47.032;8.310;2023-04-01T17:49:18;2.05;;;1.42;;
46084;SDS011;31823;47.032;8.310;2023-04-01T17:52:03;1.25;;;0.90;;
46084;SDS011;31823;47.032;8.310;2023-04-01T18:03:12;2.40;;;1.00;;
46084;SDS011;31823;47.032;8.310;2023-04-01T18:19:09;1.00;;;1.00;;
46084;SDS011;31823;47.032;8.310;2023-04-01T18:21:53;1.30;;;1.10;;
46084;SDS011;31823;47.032;8.310;2023-04-01T18:24:40;1.10;;;1.10;;
46084;SDS011;31823;47.032;8.310;2023-04-01T18:27:30;1.33;;;1.13;;
46084;SDS011;31823;47.032;8.310;2023-04-01T18:30:15;2.50;;;1.13;;
46084;SDS011;31823;47.032;8.310;2023-04-01T18:38:12;3.92;;;1.35;;
46084;SDS011;31823;47.032;8.310;2023-04-01T18:40:42;1.92;;;1.15;;
46084;SDS011;31823;47.032;8.310;2023-04-01T18:43:34;2.75;;;1.10;;
46084;SDS011;31823;47.032;8.310;2023-04-01T18:46:11;1.52;;;1.42;;
46084;SDS011;31823;47.032;8.310;2023-04-01T18:51:36;2.03;;;1.10;;
46084;SDS011;31823;47.032;8.310;2023-04-01T18:57:10;2.30;;;1.27;;
46084;SDS011;31823;47.032;8.310;2023-04-01T18:59:42;3.00;;;1.48;;
46084;SDS011;31823;47.032;8.310;2023-04-01T19:05:12;1.42;;;0.90;;
46084;SDS011;31823;47.032;8.310;2023-04-01T19:07:44;1.13;;;1.05;;
46084;SDS011;31823;47.032;8.310;2023-04-01T19:13:05;1.45;;;1.05;;
46084;SDS011;31823;47.032;8.310;2023-04-01T19:15:49;1.20;;;1.10;;
46084;SDS011;31823;47.032;8.310;2023-04-01T19:24:03;1.00;;;0.90;;
46084;SDS011;31823;47.032;8.310;2023-04-01T19:32:32;4.80;;;1.50;;
46084;SDS011;31823;47.032;8.310;2023-04-01T19:37:37;2.10;;;0.93;;
46084;SDS011;31823;47.032;8.310;2023-04-01T19:42:52;3.30;;;1.60;;
46084;SDS011;31823;47.032;8.310;2023-04-01T19:53:49;1.58;;;1.20;;
46084;SDS011;31823;47.032;8.310;2023-04-01T19:56:19;1.52;;;1.40;;
46084;SDS011;31823;47.032;8.310;2023-04-01T20:04:37;3.78;;;1.63;;
46084;SDS011;31823;47.032;8.310;2023-04-01T20:07:14;2.75;;;1.88;;
46084;SDS011;31823;47.032;8.310;2023-04-01T20:12:42;2.60;;;1.27;;
46084;SDS011;31823;47.032;8.310;2023-04-01T20:15:31;3.83;;;2.20;;
46084;SDS011;31823;47.032;8.310;2023-04-01T20:18:02;2.40;;;1.58;;
46084;SDS011;31823;47.032;8.310;2023-04-01T20:20:54;1.88;;;1.50;;
46084;SDS011;31823;47.032;8.310;2023-04-01T20:23:38;4.82;;;1.23;;
46084;SDS011;31823;47.032;8.310;2023-04-01T20:26:32;3.08;;;1.50;;
46084;SDS011;31823;47.032;8.310;2023-04-01T20:36:58;2.35;;;1.30;;
46084;SDS011;31823;47.032;8.310;2023-04-01T20:50:28;2.50;;;2.30;;
46084;SDS011;31823;47.032;8.310;2023-04-01T21:09:44;3.72;;;2.38;;
46084;SDS011;31823;47.032;8.310;2023-04-01T21:12:42;3.22;;;2.20;;
46084;SDS011;31823;47.032;8.310;2023-04-01T21:32:34;2.13;;;1.27;;
46084;SDS011;31823;47.032;8.310;2023-04-01T21:52:55;1.90;;;0.90;;
46084;SDS011;31823;47.032;8.310;2023-04-01T21:55:46;1.23;;;1.10;;
46084;SDS011;31823;47.032;8.310;2023-04-01T22:06:43;1.52;;;1.42;;
46084;SDS011;31823;47.032;8.310;2023-04-01T22:09:59;1.88;;;1.08;;
46084;SDS011;31823;47.032;8.310;2023-04-01T22:12:20;1.10;;;1.02;;
46084;SDS011;31823;47.032;8.310;2023-04-01T22:14:54;3.40;;;1.50;;
46084;SDS011;31823;47.032;8.310;2023-04-01T22:26:15;1.38;;;0.90;;
46084;SDS011;31823;47.032;8.310;2023-04-01T22:31:37;4.20;;;2.00;;
46084;SDS011;31823;47.032;8.310;2023-04-01T22:34:14;2.45;;;1.67;;
46084;SDS011;31823;47.032;8.310;2023-04-01T22:39:28;1.67;;;1.30;;
46084;SDS011;31823;47.032;8.310;2023-04-01T22:42:20;1.90;;;1.40;;
46084;SDS011;31823;47.032;8.310;2023-04-01T22:47:40;1.20;;;1.10;;
46084;SDS011;31823;47.032;8.310;2023-04-01T22:50:31;1.33;;;1.20;;
46084;SDS011;31823;47.032;8.310;2023-04-01T22:56:18;2.25;;;1.60;;
46084;SDS011;31823;47.032;8.310;2023-04-01T22:58:49;1.40;;;1.27;;
46084;SDS011;31823;47.032;8.310;2023-04-01T23:01:23;1.90;;;1.38;;
46084;SDS011;31823;47.032;8.310;2023-04-01T23:03:54;3.42;;;1.70;;
46084;SDS011;31823;47.032;8.310;2023-04-01T23:06:26;2.90;;;2.00;;
46084;SDS011;31823;47.032;8.310;2023-04-01T23:09:10;1.88;;;1.50;;
46084;SDS011;31823;47.032;8.310;2023-04-01T23:12:02;2.10;;;1.70;;
46084;SDS011;31823;47.032;8.310;2023-04-01T23:36:49;2.88;;;2.33;;
46084;SDS011;31823;47.032;8.310;2023-04-01T23:42:02;2.00;;;1.60;;
46084;SDS011;31823;47.032;8.310;2023-04-01T23:44:30;3.38;;;1.98;;
46084;SDS011;31823;47.032;8.310;2023-04-01T23:46:57;2.70;;;1.73;;
46084;SDS011;31823;47.032;8.310;2023-04-01T23:49:36;1.92;;;1.60;;
46084;SDS011;31823;47.032;8.310;2023-04-01T23:52:13;2.42;;;1.90;;
46084;SDS011;31823;47.032;8.310;2023-04-01T23:54:53;4.25;;;1.70;;
46084;SDS011;31823;47.032;8.310;2023-04-01T23:57:24;1.65;;;1.17;;
